createdAt,value
2019-04-16T00:01:35.699Z,27.90
2019-04-16T00:04:03.748Z,28.00
2019-04-16T00:06:31.948Z,28.00
2019-04-16T00:09:01.762Z,28.00
2019-04-16T00:11:29.885Z,28.10
2019-04-16T00:14:03.013Z,28.10
2019-04-16T00:16:27.705Z,28.10
2019-04-16T00:18:58.123Z,28.10
2019-04-16T00:21:25.288Z,28.20
2019-04-16T00:23:53.375Z,28.10
2019-04-16T00:26:21.419Z,28.20
2019-04-16T00:28:49.265Z,28.30
2019-04-16T00:31:17.681Z,28.40
2019-04-16T00:33:45.548Z,28.60
2019-04-16T00:36:15.393Z,28.70
2019-04-16T00:38:45.487Z,28.90
2019-04-16T00:41:13.255Z,29.10
2019-04-16T00:43:44.147Z,29.20
2019-04-16T00:46:12.119Z,29.30
2019-04-16T00:48:40.290Z,29.50
2019-04-16T00:51:08.279Z,29.60
2019-04-16T00:53:36.357Z,29.70
2019-04-16T00:56:05.469Z,29.80
2019-04-16T00:58:33.401Z,29.90
2019-04-16T01:01:01.534Z,30.00
2019-04-16T01:03:34.963Z,30.10
2019-04-16T01:06:06.765Z,30.20
2019-04-16T01:08:32.641Z,30.30
2019-04-16T01:11:03.713Z,30.40
2019-04-16T01:13:31.774Z,30.50
2019-04-16T01:16:02.492Z,30.60
2019-04-16T01:18:29.809Z,30.60
2019-04-16T01:21:00.289Z,30.70
2019-04-16T01:23:29.139Z,30.80
2019-04-16T01:25:57.688Z,30.80
2019-04-16T01:28:26.045Z,30.90
2019-04-16T01:30:57.627Z,31.00
2019-04-16T01:33:25.645Z,31.10
2019-04-16T01:35:54.101Z,31.10
2019-04-16T01:38:27.690Z,31.20
2019-04-16T01:40:53.747Z,31.20
2019-04-16T01:43:25.474Z,31.40
2019-04-16T01:45:51.289Z,31.40
2019-04-16T01:48:19.678Z,31.50
2019-04-16T01:50:47.740Z,31.50
2019-04-16T01:53:18.385Z,31.60
2019-04-16T01:55:45.402Z,31.70
2019-04-16T01:58:13.699Z,31.80
2019-04-16T02:00:41.527Z,31.80
2019-04-16T02:03:09.192Z,31.90
2019-04-16T02:05:37.024Z,31.90
2019-04-16T02:08:07.796Z,32.10
2019-04-16T02:10:38.468Z,32.10
2019-04-16T02:13:05.592Z,32.20
2019-04-16T02:15:33.836Z,32.30
2019-04-16T02:18:01.884Z,32.30
2019-04-16T02:20:30.117Z,32.40
2019-04-16T02:22:58.656Z,32.40
2019-04-16T02:25:26.756Z,32.60
2019-04-16T02:27:57.015Z,32.60
2019-04-16T02:30:24.380Z,32.70
2019-04-16T02:32:52.556Z,32.70
2019-04-16T02:35:21.039Z,32.80
2019-04-16T02:37:52.318Z,32.80
2019-04-16T02:40:20.335Z,32.90
2019-04-16T02:42:51.808Z,32.90
2019-04-16T02:45:23.560Z,33.00
2019-04-16T02:47:51.635Z,33.00
2019-04-16T02:50:19.580Z,33.10
2019-04-16T02:52:51.136Z,33.20
2019-04-16T02:55:26.837Z,33.20
2019-04-16T02:57:59.543Z,33.00
2019-04-16T03:00:24.419Z,32.70
2019-04-16T03:03:03.002Z,32.40
2019-04-16T03:05:30.883Z,32.10
2019-04-16T03:08:01.483Z,31.80
2019-04-16T03:10:29.576Z,31.50
2019-04-16T03:12:57.563Z,31.30
2019-04-16T03:15:25.774Z,31.10
2019-04-16T03:17:53.469Z,31.10
2019-04-16T03:20:24.690Z,31.30
2019-04-16T03:22:52.602Z,31.40
2019-04-16T03:25:20.399Z,31.60
2019-04-16T03:27:51.558Z,31.80
2019-04-16T03:30:21.447Z,32.00
2019-04-16T03:32:49.075Z,32.10
2019-04-16T03:35:22.716Z,32.30
2019-04-16T03:37:47.686Z,32.40
2019-04-16T03:40:18.905Z,32.60
2019-04-16T03:42:46.291Z,32.70
2019-04-16T03:45:14.307Z,32.80
2019-04-16T03:47:42.408Z,32.90
2019-04-16T03:50:10.901Z,33.00
2019-04-16T03:52:40.868Z,33.10
2019-04-16T03:55:08.866Z,33.20
2019-04-16T03:57:36.972Z,33.30
2019-04-16T04:00:05.145Z,33.40
2019-04-16T04:02:33.212Z,33.50
2019-04-16T04:05:06.177Z,33.60
2019-04-16T04:07:30.777Z,33.70
2019-04-16T04:09:58.924Z,33.80
2019-04-16T04:12:27.873Z,33.80
2019-04-16T04:14:55.761Z,33.80
2019-04-16T04:17:25.184Z,34.00
2019-04-16T04:19:53.466Z,34.00
2019-04-16T04:22:22.775Z,34.10
2019-04-16T04:24:51.037Z,34.10
2019-04-16T04:27:19.763Z,34.20
2019-04-16T04:29:48.007Z,34.20
2019-04-16T04:32:16.028Z,34.30
2019-04-16T04:34:45.408Z,34.30
2019-04-16T04:37:13.786Z,34.40
2019-04-16T04:39:44.142Z,34.50
2019-04-16T04:42:10.918Z,34.50
2019-04-16T04:44:38.860Z,34.50
2019-04-16T04:47:07.194Z,34.60
2019-04-16T04:49:35.359Z,34.60
2019-04-16T04:52:04.279Z,34.60
2019-04-16T04:54:32.350Z,34.70
2019-04-16T04:57:00.474Z,34.70
2019-04-16T04:59:28.457Z,34.80
2019-04-16T05:01:56.442Z,34.90
2019-04-16T05:04:24.610Z,34.90
2019-04-16T05:06:54.322Z,34.90
2019-04-16T05:09:22.144Z,35.00
2019-04-16T05:11:50.189Z,35.10
2019-04-16T05:14:20.758Z,35.10
2019-04-16T05:16:50.207Z,35.20
2019-04-16T05:19:18.031Z,35.20
2019-04-16T05:21:49.721Z,35.30
2019-04-16T05:24:15.497Z,35.40
2019-04-16T05:26:43.442Z,35.40
2019-04-16T05:29:16.069Z,35.50
2019-04-16T05:31:41.295Z,35.50
2019-04-16T05:34:09.602Z,35.50
2019-04-16T05:36:40.175Z,35.60
2019-04-16T05:39:07.217Z,35.60
2019-04-16T05:41:36.057Z,35.60
2019-04-16T05:44:03.968Z,35.70
2019-04-16T05:46:32.353Z,35.70
2019-04-16T05:49:00.670Z,35.80
2019-04-16T05:51:31.414Z,35.80
2019-04-16T05:53:59.810Z,35.80
2019-04-16T05:56:27.628Z,35.80
2019-04-16T05:58:55.832Z,35.90
2019-04-16T06:01:23.985Z,35.90
2019-04-16T06:03:53.418Z,36.00
2019-04-16T06:06:21.238Z,36.00
2019-04-16T06:08:49.445Z,36.00
2019-04-16T06:11:28.733Z,36.10
2019-04-16T06:13:48.750Z,36.10
2019-04-16T06:16:24.149Z,36.20
2019-04-16T06:18:49.414Z,36.20
2019-04-16T06:21:17.585Z,36.30
2019-04-16T06:23:48.308Z,36.30
2019-04-16T06:26:16.863Z,36.30
2019-04-16T06:28:45.201Z,36.30
2019-04-16T06:31:13.679Z,36.40
2019-04-16T06:33:43.332Z,36.40
2019-04-16T06:36:11.556Z,36.50
2019-04-16T06:38:40.734Z,36.50
2019-04-16T06:41:08.588Z,36.60
2019-04-16T06:43:36.660Z,36.60
2019-04-16T06:46:05.486Z,36.70
2019-04-16T06:48:34.283Z,36.70
2019-04-16T06:51:02.355Z,36.80
2019-04-16T06:53:30.900Z,36.80
2019-04-16T06:55:58.793Z,36.80
2019-04-16T06:58:27.891Z,36.80
2019-04-16T07:00:57.283Z,36.90
2019-04-16T07:03:27.315Z,36.90
2019-04-16T07:05:54.758Z,36.90
2019-04-16T07:08:22.813Z,37.00
2019-04-16T07:10:51.005Z,37.00
2019-04-16T07:13:19.000Z,37.00
2019-04-16T07:15:46.952Z,37.10
2019-04-16T07:18:14.994Z,37.10
2019-04-16T07:20:45.670Z,37.10
2019-04-16T07:23:18.191Z,37.10
2019-04-16T07:25:48.081Z,37.20
2019-04-16T07:28:16.505Z,37.20
2019-04-16T07:30:49.756Z,37.20
2019-04-16T07:33:21.408Z,37.20
2019-04-16T07:35:46.196Z,37.30
2019-04-16T07:38:18.389Z,37.30
2019-04-16T07:40:46.513Z,37.30
2019-04-16T07:43:15.969Z,37.40
2019-04-16T07:45:43.676Z,37.40
2019-04-16T07:48:11.752Z,37.40
2019-04-16T07:50:39.639Z,37.50
2019-04-16T07:53:07.767Z,37.50
2019-04-16T07:55:35.762Z,37.50
2019-04-16T07:58:03.716Z,37.60
2019-04-16T08:00:31.856Z,37.60
2019-04-16T08:03:00.494Z,37.60
2019-04-16T08:05:28.892Z,37.70
2019-04-16T08:08:01.853Z,37.70
2019-04-16T08:10:32.207Z,37.70
2019-04-16T08:13:01.739Z,37.70
2019-04-16T08:15:29.773Z,37.70
2019-04-16T08:17:57.940Z,37.70
2019-04-16T08:20:25.859Z,37.80
2019-04-16T08:22:54.130Z,37.80
2019-04-16T08:25:22.466Z,37.80
2019-04-16T08:27:50.754Z,37.80
2019-04-16T08:30:19.771Z,37.80
2019-04-16T08:32:48.863Z,37.90
2019-04-16T08:35:23.916Z,37.90
2019-04-16T08:37:52.344Z,37.90
2019-04-16T08:40:20.335Z,37.90
2019-04-16T08:42:48.648Z,37.90
2019-04-16T08:45:16.517Z,37.90
2019-04-16T08:47:44.971Z,38.00
2019-04-16T08:50:14.228Z,38.00
2019-04-16T08:52:42.608Z,38.00
2019-04-16T08:55:10.827Z,38.00
2019-04-16T08:57:38.870Z,38.00
2019-04-16T09:00:06.970Z,38.00
2019-04-16T09:02:35.013Z,38.00
2019-04-16T09:05:05.888Z,38.00
2019-04-16T09:07:32.504Z,38.10
2019-04-16T09:10:00.556Z,38.10
2019-04-16T09:12:28.933Z,38.10
2019-04-16T09:14:56.881Z,38.10
2019-04-16T09:17:26.274Z,38.10
2019-04-16T09:19:54.445Z,38.10
2019-04-16T09:22:22.730Z,38.10
2019-04-16T09:24:59.692Z,38.10
2019-04-16T09:27:33.968Z,38.10
2019-04-16T09:30:00.511Z,38.10
2019-04-16T09:32:28.602Z,38.10
2019-04-16T09:35:07.943Z,38.10
2019-04-16T09:37:28.668Z,38.10
2019-04-16T09:39:59.868Z,38.20
2019-04-16T09:42:28.268Z,38.20
2019-04-16T09:44:56.426Z,38.20
2019-04-16T09:47:24.686Z,38.20
2019-04-16T09:49:53.641Z,38.20
2019-04-16T09:52:23.219Z,38.20
2019-04-16T09:54:50.982Z,38.20
2019-04-16T09:57:19.347Z,38.20
2019-04-16T09:59:47.794Z,38.20
2019-04-16T10:02:17.282Z,38.20
2019-04-16T10:04:45.056Z,38.20
2019-04-16T10:07:14.005Z,38.20
2019-04-16T10:09:42.420Z,38.20
2019-04-16T10:12:10.389Z,38.20
2019-04-16T10:14:38.449Z,38.20
2019-04-16T10:17:06.550Z,38.20
2019-04-16T10:19:34.731Z,38.20
2019-04-16T10:22:02.738Z,38.20
2019-04-16T10:24:30.982Z,38.20
2019-04-16T10:26:59.954Z,38.20
2019-04-16T10:29:28.813Z,38.20
2019-04-16T10:31:56.619Z,38.30
2019-04-16T10:34:24.767Z,38.30
2019-04-16T10:36:52.626Z,38.30
2019-04-16T10:39:22.955Z,38.40
2019-04-16T10:41:50.971Z,38.40
2019-04-16T10:44:20.643Z,38.40
2019-04-16T10:46:48.997Z,38.40
2019-04-16T10:49:17.294Z,38.40
2019-04-16T10:51:45.411Z,38.40
2019-04-16T10:54:13.451Z,38.40
2019-04-16T10:56:41.335Z,38.50
2019-04-16T10:59:09.637Z,38.50
2019-04-16T11:02:35.227Z,38.50
2019-04-16T11:04:17.776Z,38.40
2019-04-16T11:22:11.331Z,38.30
2019-04-16T11:24:41.763Z,38.30
2019-04-16T11:30:32.428Z,38.20
2019-04-16T11:35:53.011Z,38.20
2019-04-16T11:41:00.299Z,38.10
2019-04-16T11:43:28.489Z,38.10
2019-04-16T11:45:56.537Z,38.10
2019-04-16T11:48:24.724Z,38.10
2019-04-16T11:50:53.250Z,38.10
2019-04-16T11:53:21.702Z,38.10
2019-04-16T11:55:50.183Z,38.10
2019-04-16T11:58:18.203Z,38.00
2019-04-16T12:00:47.079Z,38.00
2019-04-16T12:03:15.234Z,38.00
2019-04-16T12:05:43.165Z,37.90
2019-04-16T12:08:10.963Z,37.90
2019-04-16T12:10:38.710Z,38.00
2019-04-16T12:13:06.727Z,38.00
2019-04-16T12:15:35.568Z,38.00
2019-04-16T12:18:03.401Z,38.00
2019-04-16T12:20:31.469Z,37.90
2019-04-16T12:22:59.651Z,37.90
2019-04-16T12:25:29.290Z,37.80
2019-04-16T12:27:57.931Z,37.90
2019-04-16T12:30:27.287Z,37.80
2019-04-16T12:32:55.587Z,37.80
2019-04-16T12:35:23.714Z,37.80
2019-04-16T12:37:53.342Z,37.70
2019-04-16T12:40:21.463Z,37.70
2019-04-16T12:42:49.605Z,37.70
2019-04-16T12:45:17.886Z,37.70
2019-04-16T12:47:46.036Z,37.70
2019-04-16T12:50:16.741Z,37.70
2019-04-16T12:52:44.029Z,37.70
2019-04-16T13:00:42.190Z,37.60
2019-04-16T13:05:47.549Z,37.60
2019-04-16T13:11:07.734Z,37.50
2019-04-16T13:13:33.735Z,37.50
2019-04-16T13:16:01.772Z,37.50
2019-04-16T13:21:53.463Z,37.50
2019-04-16T13:27:14.502Z,37.40
2019-04-16T13:30:03.073Z,37.40
2019-04-16T13:32:19.617Z,37.30
2019-04-16T13:34:48.255Z,37.30
2019-04-16T13:37:16.128Z,37.30
2019-04-16T13:39:44.274Z,37.30
2019-04-16T13:42:27.144Z,37.30
2019-04-16T13:45:15.205Z,37.30
2019-04-16T13:47:42.774Z,37.30
2019-04-16T13:50:36.012Z,37.30
2019-04-16T13:53:00.322Z,37.30
2019-04-16T13:55:28.554Z,37.30
2019-04-16T13:57:57.077Z,37.30
2019-04-16T14:00:26.005Z,37.30
2019-04-16T14:03:03.075Z,37.30
2019-04-16T14:05:37.397Z,37.30
2019-04-16T14:08:04.860Z,37.30
2019-04-16T16:08:43.931Z,29.30
2019-04-16T16:11:16.363Z,28.90
2019-04-16T16:13:51.055Z,29.00
2019-04-16T16:18:45.674Z,29.50
2019-04-16T16:21:13.737Z,29.50
2019-04-16T16:23:42.126Z,29.70
2019-04-16T16:26:17.325Z,29.80
2019-04-16T16:28:48.611Z,29.70
2019-04-16T16:31:16.972Z,29.80
2019-04-16T16:33:45.352Z,29.90
2019-04-16T16:36:13.741Z,29.90
2019-04-16T16:38:48.554Z,30.00
2019-04-16T16:41:15.405Z,30.00
2019-04-16T16:43:43.854Z,30.00
2019-04-16T16:46:15.049Z,30.00
2019-04-16T16:48:45.752Z,30.10
2019-04-16T16:51:15.702Z,30.00
2019-04-16T16:53:55.734Z,30.00
2019-04-16T16:56:24.275Z,30.00
2019-04-16T16:58:50.962Z,29.90
2019-04-16T17:01:19.872Z,29.90
2019-04-16T17:03:52.625Z,29.80
2019-04-16T17:06:19.287Z,29.80
2019-04-16T17:08:50.840Z,29.70
2019-04-16T17:11:19.207Z,29.70
2019-04-16T17:13:47.911Z,29.70
2019-04-16T17:16:16.085Z,29.60
2019-04-16T17:18:45.570Z,29.60
2019-04-16T17:21:13.566Z,29.50
2019-04-16T17:23:41.820Z,29.50
2019-04-16T17:26:16.043Z,29.40
2019-04-16T17:28:44.240Z,29.40
2019-04-16T17:31:13.121Z,29.40
2019-04-16T17:33:42.010Z,29.30
2019-04-16T17:36:10.291Z,29.50
2019-04-16T17:38:38.782Z,29.70
2019-04-16T17:41:07.113Z,29.70
2019-04-16T17:43:35.655Z,29.60
2019-04-16T17:46:03.905Z,29.50
2019-04-16T17:48:32.384Z,29.30
2019-04-16T17:51:01.209Z,29.20
2019-04-16T17:53:29.458Z,29.20
2019-04-16T17:55:57.533Z,29.20
2019-04-16T17:58:27.392Z,29.20
2019-04-16T18:00:58.071Z,29.20
2019-04-16T18:03:26.573Z,29.20
2019-04-16T18:05:54.840Z,29.10
2019-04-16T18:08:23.104Z,29.10
2019-04-16T18:10:54.633Z,28.90
2019-04-16T18:13:23.280Z,28.90
2019-04-16T18:15:51.492Z,29.00
2019-04-16T18:18:19.844Z,29.00
2019-04-16T18:20:57.323Z,29.00
2019-04-16T18:23:17.776Z,29.00
2019-04-16T18:25:55.421Z,29.00
2019-04-16T18:28:15.484Z,29.00
2019-04-16T18:30:48.165Z,29.00
2019-04-16T18:33:16.219Z,29.00
2019-04-16T18:35:44.513Z,29.00
2019-04-16T18:38:12.586Z,29.00
2019-04-16T18:40:40.597Z,28.90
2019-04-16T18:43:08.933Z,28.90
2019-04-16T18:45:36.624Z,29.00
2019-04-16T18:48:12.316Z,29.00
2019-04-16T18:50:34.291Z,29.00
2019-04-16T18:53:02.651Z,29.00
2019-04-16T18:55:31.128Z,28.90
2019-04-16T18:57:59.408Z,28.90
2019-04-16T19:00:28.608Z,28.90
2019-04-16T19:03:00.470Z,28.90
2019-04-16T19:05:28.752Z,28.90
2019-04-16T19:08:00.200Z,28.90
2019-04-16T19:10:26.844Z,28.90
2019-04-16T19:12:54.966Z,28.90
2019-04-16T19:15:25.950Z,28.90
2019-04-16T19:17:54.184Z,28.90
2019-04-16T19:20:22.413Z,28.90
2019-04-16T19:22:50.753Z,28.90
2019-04-16T19:25:18.656Z,28.90
2019-04-16T19:27:48.930Z,28.90
2019-04-16T19:30:16.341Z,28.90
2019-04-16T19:32:47.904Z,28.90
2019-04-16T19:35:20.552Z,28.90
2019-04-16T19:37:46.411Z,28.90
2019-04-16T19:40:16.026Z,28.90
2019-04-16T19:42:43.795Z,28.80
2019-04-16T19:45:12.785Z,28.80
2019-04-16T19:47:40.893Z,28.80
2019-04-16T19:50:08.683Z,28.80
2019-04-16T19:52:36.959Z,28.80
2019-04-16T19:55:05.476Z,28.80
2019-04-16T19:57:33.551Z,28.80
2019-04-16T20:00:01.804Z,28.80
2019-04-16T20:02:33.027Z,28.80
2019-04-16T20:04:59.185Z,28.80
2019-04-16T20:07:32.659Z,28.80
2019-04-16T20:09:57.069Z,28.80
2019-04-16T20:12:28.072Z,28.80
2019-04-16T20:14:54.848Z,28.80
2019-04-16T20:17:22.934Z,28.80
2019-04-16T20:19:51.007Z,28.80
2019-04-16T20:22:18.877Z,28.80
2019-04-16T20:24:46.705Z,28.70
2019-04-16T20:27:19.529Z,28.70
2019-04-16T20:29:47.145Z,28.80
2019-04-16T20:32:15.286Z,28.80
2019-04-16T20:34:45.256Z,28.80
2019-04-16T20:37:13.148Z,28.80
2019-04-16T20:39:41.347Z,28.70
2019-04-16T20:42:09.580Z,28.80
2019-04-16T20:44:37.874Z,28.70
2019-04-16T20:47:08.631Z,28.70
2019-04-16T20:49:35.376Z,28.80
2019-04-16T20:52:03.733Z,28.80
2019-04-16T20:54:31.810Z,28.70
2019-04-16T20:57:00.186Z,28.70
2019-04-16T20:59:28.466Z,28.70
2019-04-16T21:01:56.758Z,28.70
2019-04-16T21:04:25.013Z,28.70
2019-04-16T21:06:53.197Z,28.70
2019-04-16T21:09:26.845Z,28.70
2019-04-16T21:11:54.562Z,28.70
2019-04-16T21:14:22.771Z,28.70
2019-04-16T21:16:50.621Z,28.70
2019-04-16T21:19:23.302Z,28.70
2019-04-16T21:21:48.295Z,28.70
2019-04-16T21:24:16.980Z,28.70
2019-04-16T21:26:44.820Z,28.70
2019-04-16T21:29:14.487Z,28.70
2019-04-16T21:31:45.189Z,28.70
2019-04-16T21:34:13.562Z,28.70
2019-04-16T21:36:41.555Z,28.60
2019-04-16T21:39:09.512Z,28.70
2019-04-16T21:41:38.095Z,28.70
2019-04-16T21:44:12.080Z,28.70
2019-04-16T21:46:37.439Z,28.90
2019-04-16T21:49:10.823Z,29.20
2019-04-16T21:51:44.769Z,29.50
2019-04-16T21:54:12.908Z,29.70
2019-04-16T21:56:41.037Z,29.90
2019-04-16T21:59:09.112Z,30.10
2019-04-16T22:01:36.965Z,30.30
2019-04-16T22:04:05.089Z,30.90
2019-04-16T22:06:33.059Z,30.50
2019-04-16T22:09:03.281Z,31.10
2019-04-16T22:11:30.715Z,31.70
2019-04-16T22:13:59.016Z,32.10
2019-04-16T22:16:29.942Z,32.50
2019-04-16T22:18:56.988Z,32.80
2019-04-16T22:21:25.284Z,33.00
2019-04-16T22:23:53.256Z,33.20
2019-04-16T22:26:21.224Z,33.30
2019-04-16T22:28:49.280Z,33.50
2019-04-16T22:31:17.670Z,33.60
